sensor_id;sensor_type;location;lat;lon;timestamp;P1;durP1;ratioP1;P2;durP2;ratioP2
29452;SDS011;16424;50.956;5.320;2023-02-19T00:00:53;11.18;;;7.00;;
29452;SDS011;16424;50.956;5.320;2023-02-19T00:03:19;9.55;;;6.47;;
29452;SDS011;16424;50.956;5.320;2023-02-19T00:05:44;8.77;;;6.60;;
29452;SDS011;16424;50.956;5.320;2023-02-19T00:08:10;9.65;;;6.75;;
29452;SDS011;16424;50.956;5.320;2023-02-19T00:10:35;9.55;;;7.03;;
29452;SDS011;16424;50.956;5.320;2023-02-19T00:13:01;6.38;;;5.30;;
29452;SDS011;16424;50.956;5.320;2023-02-19T00:15:27;12.32;;;6.30;;
29452;SDS011;16424;50.956;5.320;2023-02-19T00:17:52;12.50;;;6.28;;
29452;SDS011;16424;50.956;5.320;2023-02-19T00:20:18;10.80;;;6.57;;
29452;SDS011;16424;50.956;5.320;2023-02-19T00:22:44;8.32;;;6.22;;
29452;SDS011;16424;50.956;5.320;2023-02-19T00:25:09;8.10;;;5.72;;
29452;SDS011;16424;50.956;5.320;2023-02-19T00:27:35;7.03;;;5.53;;
29452;SDS011;16424;50.956;5.320;2023-02-19T00:30:00;8.15;;;6.10;;
29452;SDS011;16424;50.956;5.320;2023-02-19T00:32:26;9.45;;;5.65;;
29452;SDS011;16424;50.956;5.320;2023-02-19T00:34:52;10.48;;;5.53;;
29452;SDS011;16424;50.956;5.320;2023-02-19T00:37:17;8.07;;;5.57;;
29452;SDS011;16424;50.956;5.320;2023-02-19T00:39:43;8.73;;;5.97;;
29452;SDS011;16424;50.956;5.320;2023-02-19T00:42:09;8.38;;;5.43;;
29452;SDS011;16424;50.956;5.320;2023-02-19T00:44:34;8.15;;;5.32;;
29452;SDS011;16424;50.956;5.320;2023-02-19T00:47:00;8.73;;;5.38;;
29452;SDS011;16424;50.956;5.320;2023-02-19T00:49:25;6.43;;;5.45;;
29452;SDS011;16424;50.956;5.320;2023-02-19T00:51:51;8.68;;;6.13;;
29452;SDS011;16424;50.956;5.320;2023-02-19T00:54:17;8.18;;;5.65;;
29452;SDS011;16424;50.956;5.320;2023-02-19T00:56:43;9.70;;;5.10;;
29452;SDS011;16424;50.956;5.320;2023-02-19T00:59:10;11.77;;;5.20;;
29452;SDS011;16424;50.956;5.320;2023-02-19T01:01:36;8.50;;;5.25;;
29452;SDS011;16424;50.956;5.320;2023-02-19T01:04:02;6.72;;;4.93;;
29452;SDS011;16424;50.956;5.320;2023-02-19T01:06:30;8.93;;;5.68;;
29452;SDS011;16424;50.956;5.320;2023-02-19T01:08:56;8.68;;;5.47;;
29452;SDS011;16424;50.956;5.320;2023-02-19T01:11:22;7.03;;;4.82;;
29452;SDS011;16424;50.956;5.320;2023-02-19T01:13:48;6.72;;;5.15;;
29452;SDS011;16424;50.956;5.320;2023-02-19T01:16:16;7.85;;;5.60;;
29452;SDS011;16424;50.956;5.320;2023-02-19T01:18:46;7.75;;;5.38;;
29452;SDS011;16424;50.956;5.320;2023-02-19T01:21:19;8.95;;;5.57;;
29452;SDS011;16424;50.956;5.320;2023-02-19T01:23:47;9.60;;;6.03;;
29452;SDS011;16424;50.956;5.320;2023-02-19T01:26:15;11.85;;;6.25;;
29452;SDS011;16424;50.956;5.320;2023-02-19T01:28:44;12.82;;;7.32;;
29452;SDS011;16424;50.956;5.320;2023-02-19T01:31:12;10.10;;;5.90;;
29452;SDS011;16424;50.956;5.320;2023-02-19T01:33:43;12.68;;;7.18;;
29452;SDS011;16424;50.956;5.320;2023-02-19T01:36:16;10.00;;;6.30;;
29452;SDS011;16424;50.956;5.320;2023-02-19T01:38:42;11.52;;;6.53;;
29452;SDS011;16424;50.956;5.320;2023-02-19T01:41:09;12.23;;;6.93;;
29452;SDS011;16424;50.956;5.320;2023-02-19T01:46:38;13.57;;;6.97;;
29452;SDS011;16424;50.956;5.320;2023-02-19T01:49:12;12.10;;;7.00;;
29452;SDS011;16424;50.956;5.320;2023-02-19T01:51:48;13.93;;;7.78;;
29452;SDS011;16424;50.956;5.320;2023-02-19T01:54:19;12.23;;;7.97;;
29452;SDS011;16424;50.956;5.320;2023-02-19T01:56:49;14.40;;;7.63;;
29452;SDS011;16424;50.956;5.320;2023-02-19T01:59:15;14.13;;;7.90;;
29452;SDS011;16424;50.956;5.320;2023-02-19T02:01:42;18.92;;;9.02;;
29452;SDS011;16424;50.956;5.320;2023-02-19T02:04:08;14.45;;;8.15;;
29452;SDS011;16424;50.956;5.320;2023-02-19T02:06:46;15.48;;;8.18;;
29452;SDS011;16424;50.956;5.320;2023-02-19T02:09:14;14.00;;;7.88;;
29452;SDS011;16424;50.956;5.320;2023-02-19T02:12:01;12.95;;;8.50;;
29452;SDS011;16424;50.956;5.320;2023-02-19T02:14:28;18.38;;;9.20;;
29452;SDS011;16424;50.956;5.320;2023-02-19T02:17:32;14.35;;;7.93;;
29452;SDS011;16424;50.956;5.320;2023-02-19T02:31:14;14.45;;;7.60;;
29452;SDS011;16424;50.956;5.320;2023-02-19T02:33:47;19.33;;;7.75;;
29452;SDS011;16424;50.956;5.320;2023-02-19T02:38:56;20.67;;;7.80;;
29452;SDS011;16424;50.956;5.320;2023-02-19T02:41:23;14.05;;;6.95;;
29452;SDS011;16424;50.956;5.320;2023-02-19T02:43:49;13.80;;;6.95;;
29452;SDS011;16424;50.956;5.320;2023-02-19T02:46:18;14.20;;;6.72;;
29452;SDS011;16424;50.956;5.320;2023-02-19T02:48:56;15.70;;;7.75;;
29452;SDS011;16424;50.956;5.320;2023-02-19T02:51:28;10.98;;;6.65;;
29452;SDS011;16424;50.956;5.320;2023-02-19T02:54:10;17.52;;;7.25;;
29452;SDS011;16424;50.956;5.320;2023-02-19T02:57:02;14.68;;;7.43;;
29452;SDS011;16424;50.956;5.320;2023-02-19T02:59:30;11.20;;;6.35;;
29452;SDS011;16424;50.956;5.320;2023-02-19T03:02:06;14.32;;;7.03;;
29452;SDS011;16424;50.956;5.320;2023-02-19T03:07:59;15.93;;;6.88;;
29452;SDS011;16424;50.956;5.320;2023-02-19T03:10:30;17.02;;;6.22;;
29452;SDS011;16424;50.956;5.320;2023-02-19T03:13:24;11.43;;;6.60;;
29452;SDS011;16424;50.956;5.320;2023-02-19T03:16:17;14.18;;;7.10;;
29452;SDS011;16424;50.956;5.320;2023-02-19T03:19:05;18.80;;;6.13;;
29452;SDS011;16424;50.956;5.320;2023-02-19T03:21:43;18.73;;;5.43;;
29452;SDS011;16424;50.956;5.320;2023-02-19T03:24:34;17.42;;;5.70;;
29452;SDS011;16424;50.956;5.320;2023-02-19T03:27:21;11.27;;;4.72;;
29452;SDS011;16424;50.956;5.320;2023-02-19T03:29:51;14.13;;;4.90;;
29452;SDS011;16424;50.956;5.320;2023-02-19T03:32:28;14.52;;;4.97;;
29452;SDS011;16424;50.956;5.320;2023-02-19T03:35:02;16.17;;;5.10;;
29452;SDS011;16424;50.956;5.320;2023-02-19T03:37:35;12.95;;;4.25;;
29452;SDS011;16424;50.956;5.320;2023-02-19T03:40:05;8.55;;;3.80;;
29452;SDS011;16424;50.956;5.320;2023-02-19T03:45:12;9.45;;;3.97;;
29452;SDS011;16424;50.956;5.320;2023-02-19T03:48:01;11.18;;;3.88;;
29452;SDS011;16424;50.956;5.320;2023-02-19T03:50:47;9.35;;;3.40;;
29452;SDS011;16424;50.956;5.320;2023-02-19T03:53:29;12.48;;;4.05;;
29452;SDS011;16424;50.956;5.320;2023-02-19T03:56:06;17.17;;;4.17;;
29452;SDS011;16424;50.956;5.320;2023-02-19T04:03:58;12.13;;;3.70;;
29452;SDS011;16424;50.956;5.320;2023-02-19T04:06:46;10.85;;;3.53;;
29452;SDS011;16424;50.956;5.320;2023-02-19T04:09:17;12.25;;;3.40;;
29452;SDS011;16424;50.956;5.320;2023-02-19T04:11:44;12.70;;;3.10;;
29452;SDS011;16424;50.956;5.320;2023-02-19T04:14:14;12.70;;;2.80;;
29452;SDS011;16424;50.956;5.320;2023-02-19T04:16:44;9.60;;;2.83;;
29452;SDS011;16424;50.956;5.320;2023-02-19T04:19:15;14.15;;;3.28;;
29452;SDS011;16424;50.956;5.320;2023-02-19T04:21:44;17.73;;;2.78;;
29452;SDS011;16424;50.956;5.320;2023-02-19T04:24:13;13.85;;;3.13;;
29452;SDS011;16424;50.956;5.320;2023-02-19T04:26:46;12.10;;;2.88;;
29452;SDS011;16424;50.956;5.320;2023-02-19T04:29:12;9.32;;;2.78;;
29452;SDS011;16424;50.956;5.320;2023-02-19T04:31:37;9.90;;;2.35;;
29452;SDS011;16424;50.956;5.320;2023-02-19T04:34:03;11.40;;;1.77;;
29452;SDS011;16424;50.956;5.320;2023-02-19T04:36:32;11.68;;;3.50;;
29452;SDS011;16424;50.956;5.320;2023-02-19T04:38:58;14.10;;;4.10;;
29452;SDS011;16424;50.956;5.320;2023-02-19T04:41:24;8.93;;;2.65;;
29452;SDS011;16424;50.956;5.320;2023-02-19T04:43:49;11.20;;;2.50;;
29452;SDS011;16424;50.956;5.320;2023-02-19T04:46:15;13.68;;;2.47;;
29452;SDS011;16424;50.956;5.320;2023-02-19T04:48:41;9.95;;;2.95;;
29452;SDS011;16424;50.956;5.320;2023-02-19T04:51:07;9.48;;;3.55;;
29452;SDS011;16424;50.956;5.320;2023-02-19T04:53:34;10.18;;;3.75;;
29452;SDS011;16424;50.956;5.320;2023-02-19T04:56:10;13.05;;;2.63;;
29452;SDS011;16424;50.956;5.320;2023-02-19T04:58:38;13.50;;;3.15;;
29452;SDS011;16424;50.956;5.320;2023-02-19T05:01:04;9.30;;;2.97;;
29452;SDS011;16424;50.956;5.320;2023-02-19T05:03:30;11.40;;;2.65;;
29452;SDS011;16424;50.956;5.320;2023-02-19T05:05:56;14.90;;;3.17;;
29452;SDS011;16424;50.956;5.320;2023-02-19T05:08:22;14.68;;;3.70;;
29452;SDS011;16424;50.956;5.320;2023-02-19T05:10:47;10.05;;;2.42;;
29452;SDS011;16424;50.956;5.320;2023-02-19T05:13:13;9.23;;;2.72;;
29452;SDS011;16424;50.956;5.320;2023-02-19T05:15:38;12.88;;;2.55;;
29452;SDS011;16424;50.956;5.320;2023-02-19T05:18:04;9.20;;;2.20;;
29452;SDS011;16424;50.956;5.320;2023-02-19T05:20:30;11.75;;;2.80;;
29452;SDS011;16424;50.956;5.320;2023-02-19T05:22:55;16.00;;;2.67;;
29452;SDS011;16424;50.956;5.320;2023-02-19T05:25:21;16.40;;;3.08;;
29452;SDS011;16424;50.956;5.320;2023-02-19T05:27:47;13.50;;;2.45;;
29452;SDS011;16424;50.956;5.320;2023-02-19T05:30:12;9.25;;;2.65;;
29452;SDS011;16424;50.956;5.320;2023-02-19T05:32:38;11.75;;;3.03;;
29452;SDS011;16424;50.956;5.320;2023-02-19T05:35:04;13.40;;;3.28;;
29452;SDS011;16424;50.956;5.320;2023-02-19T05:37:30;17.33;;;4.15;;
29452;SDS011;16424;50.956;5.320;2023-02-19T05:39:55;12.73;;;2.88;;
29452;SDS011;16424;50.956;5.320;2023-02-19T05:42:21;15.60;;;3.05;;
29452;SDS011;16424;50.956;5.320;2023-02-19T05:44:49;16.52;;;3.45;;
29452;SDS011;16424;50.956;5.320;2023-02-19T05:47:15;10.38;;;3.17;;
29452;SDS011;16424;50.956;5.320;2023-02-19T05:49:41;18.00;;;3.25;;
29452;SDS011;16424;50.956;5.320;2023-02-19T05:52:06;13.35;;;3.17;;
29452;SDS011;16424;50.956;5.320;2023-02-19T05:54:32;7.95;;;2.63;;
29452;SDS011;16424;50.956;5.320;2023-02-19T05:56:57;13.43;;;3.00;;
29452;SDS011;16424;50.956;5.320;2023-02-19T05:59:24;14.43;;;2.45;;
29452;SDS011;16424;50.956;5.320;2023-02-19T06:01:50;20.95;;;3.80;;
29452;SDS011;16424;50.956;5.320;2023-02-19T06:04:17;11.27;;;3.17;;
29452;SDS011;16424;50.956;5.320;2023-02-19T06:06:44;16.65;;;3.45;;
29452;SDS011;16424;50.956;5.320;2023-02-19T06:09:11;11.27;;;2.53;;
29452;SDS011;16424;50.956;5.320;2023-02-19T06:11:37;11.60;;;3.22;;
29452;SDS011;16424;50.956;5.320;2023-02-19T06:14:03;13.25;;;3.05;;
29452;SDS011;16424;50.956;5.320;2023-02-19T06:16:29;17.65;;;3.15;;
29452;SDS011;16424;50.956;5.320;2023-02-19T06:18:57;12.23;;;3.53;;
29452;SDS011;16424;50.956;5.320;2023-02-19T06:21:23;12.70;;;2.72;;
29452;SDS011;16424;50.956;5.320;2023-02-19T06:23:49;13.48;;;2.67;;
29452;SDS011;16424;50.956;5.320;2023-02-19T06:26:17;16.83;;;3.88;;
29452;SDS011;16424;50.956;5.320;2023-02-19T06:28:45;10.40;;;2.75;;
29452;SDS011;16424;50.956;5.320;2023-02-19T06:31:11;12.63;;;3.45;;
29452;SDS011;16424;50.956;5.320;2023-02-19T06:33:38;18.95;;;3.95;;
29452;SDS011;16424;50.956;5.320;2023-02-19T06:36:05;13.43;;;2.63;;
29452;SDS011;16424;50.956;5.320;2023-02-19T06:38:34;16.13;;;3.17;;
29452;SDS011;16424;50.956;5.320;2023-02-19T06:41:01;18.63;;;4.03;;
29452;SDS011;16424;50.956;5.320;2023-02-19T06:43:29;8.85;;;2.28;;
29452;SDS011;16424;50.956;5.320;2023-02-19T06:45:57;12.25;;;3.10;;
29452;SDS011;16424;50.956;5.320;2023-02-19T06:48:24;11.65;;;3.20;;
29452;SDS011;16424;50.956;5.320;2023-02-19T06:50:51;12.30;;;2.65;;
29452;SDS011;16424;50.956;5.320;2023-02-19T06:53:16;10.93;;;3.30;;
29452;SDS011;16424;50.956;5.320;2023-02-19T06:55:42;13.85;;;3.47;;
29452;SDS011;16424;50.956;5.320;2023-02-19T06:58:08;16.88;;;3.22;;
29452;SDS011;16424;50.956;5.320;2023-02-19T07:00:33;15.93;;;2.83;;
29452;SDS011;16424;50.956;5.320;2023-02-19T07:02:59;9.70;;;2.65;;
29452;SDS011;16424;50.956;5.320;2023-02-19T07:05:25;14.15;;;2.38;;
29452;SDS011;16424;50.956;5.320;2023-02-19T07:07:51;12.13;;;3.25;;
29452;SDS011;16424;50.956;5.320;2023-02-19T07:10:17;11.35;;;3.08;;
29452;SDS011;16424;50.956;5.320;2023-02-19T07:12:42;14.60;;;3.38;;
29452;SDS011;16424;50.956;5.320;2023-02-19T07:15:08;15.52;;;3.03;;
29452;SDS011;16424;50.956;5.320;2023-02-19T07:17:34;17.27;;;2.85;;
29452;SDS011;16424;50.956;5.320;2023-02-19T07:20:00;16.15;;;3.13;;
29452;SDS011;16424;50.956;5.320;2023-02-19T07:22:25;12.77;;;2.60;;
29452;SDS011;16424;50.956;5.320;2023-02-19T07:24:51;18.92;;;3.17;;
29452;SDS011;16424;50.956;5.320;2023-02-19T07:27:17;17.80;;;3.30;;
29452;SDS011;16424;50.956;5.320;2023-02-19T07:29:43;14.38;;;3.25;;
29452;SDS011;16424;50.956;5.320;2023-02-19T07:32:08;11.13;;;2.42;;
29452;SDS011;16424;50.956;5.320;2023-02-19T07:34:34;14.27;;;2.80;;
29452;SDS011;16424;50.956;5.320;2023-02-19T07:37:00;17.30;;;2.92;;
29452;SDS011;16424;50.956;5.320;2023-02-19T07:39:26;11.10;;;2.42;;
29452;SDS011;16424;50.956;5.320;2023-02-19T07:41:51;17.70;;;4.45;;
29452;SDS011;16424;50.956;5.320;2023-02-19T07:44:17;14.98;;;3.47;;
29452;SDS011;16424;50.956;5.320;2023-02-19T07:46:43;15.90;;;3.53;;
29452;SDS011;16424;50.956;5.320;2023-02-19T07:49:08;10.73;;;3.25;;
29452;SDS011;16424;50.956;5.320;2023-02-19T07:51:34;21.35;;;3.63;;
29452;SDS011;16424;50.956;5.320;2023-02-19T07:54:04;12.40;;;2.95;;
29452;SDS011;16424;50.956;5.320;2023-02-19T07:56:30;9.68;;;2.42;;
29452;SDS011;16424;50.956;5.320;2023-02-19T07:58:55;12.10;;;2.38;;
29452;SDS011;16424;50.956;5.320;2023-02-19T08:01:22;19.23;;;4.05;;
29452;SDS011;16424;50.956;5.320;2023-02-19T08:04:07;15.90;;;3.20;;
29452;SDS011;16424;50.956;5.320;2023-02-19T08:06:33;12.88;;;2.38;;
29452;SDS011;16424;50.956;5.320;2023-02-19T08:08:58;15.77;;;3.65;;
29452;SDS011;16424;50.956;5.320;2023-02-19T08:11:24;11.23;;;2.50;;
29452;SDS011;16424;50.956;5.320;2023-02-19T08:14:08;14.35;;;3.15;;
29452;SDS011;16424;50.956;5.320;2023-02-19T08:16:33;9.65;;;2.67;;
29452;SDS011;16424;50.956;5.320;2023-02-19T08:18:59;14.45;;;3.38;;
29452;SDS011;16424;50.956;5.320;2023-02-19T08:21:25;7.53;;;2.78;;
29452;SDS011;16424;50.956;5.320;2023-02-19T08:23:50;15.07;;;3.38;;
29452;SDS011;16424;50.956;5.320;2023-02-19T08:26:16;18.17;;;3.20;;
29452;SDS011;16424;50.956;5.320;2023-02-19T08:28:42;14.45;;;3.15;;
29452;SDS011;16424;50.956;5.320;2023-02-19T08:31:08;19.25;;;3.75;;
29452;SDS011;16424;50.956;5.320;2023-02-19T08:33:35;14.85;;;3.20;;
29452;SDS011;16424;50.956;5.320;2023-02-19T08:36:03;12.75;;;2.90;;
29452;SDS011;16424;50.956;5.320;2023-02-19T08:38:30;6.43;;;2.33;;
29452;SDS011;16424;50.956;5.320;2023-02-19T08:40:58;13.60;;;2.80;;
29452;SDS011;16424;50.956;5.320;2023-02-19T08:43:24;14.40;;;3.45;;
29452;SDS011;16424;50.956;5.320;2023-02-19T08:45:51;12.98;;;3.67;;
29452;SDS011;16424;50.956;5.320;2023-02-19T08:48:18;16.23;;;4.72;;
29452;SDS011;16424;50.956;5.320;2023-02-19T08:50:44;14.23;;;3.20;;
29452;SDS011;16424;50.956;5.320;2023-02-19T08:53:09;25.77;;;5.15;;
29452;SDS011;16424;50.956;5.320;2023-02-19T08:55:36;11.43;;;2.72;;
29452;SDS011;16424;50.956;5.320;2023-02-19T08:58:02;24.58;;;3.33;;
29452;SDS011;16424;50.956;5.320;2023-02-19T09:00:28;19.02;;;3.60;;
29452;SDS011;16424;50.956;5.320;2023-02-19T09:02:53;20.10;;;4.10;;
29452;SDS011;16424;50.956;5.320;2023-02-19T09:05:21;15.50;;;3.50;;
29452;SDS011;16424;50.956;5.320;2023-02-19T09:07:47;14.45;;;3.85;;
29452;SDS011;16424;50.956;5.320;2023-02-19T09:10:13;26.42;;;4.20;;
29452;SDS011;16424;50.956;5.320;2023-02-19T09:12:39;18.42;;;4.97;;
29452;SDS011;16424;50.956;5.320;2023-02-19T09:15:05;14.85;;;4.28;;
29452;SDS011;16424;50.956;5.320;2023-02-19T09:17:31;13.50;;;3.55;;
29452;SDS011;16424;50.956;5.320;2023-02-19T09:19:57;17.60;;;4.10;;
29452;SDS011;16424;50.956;5.320;2023-02-19T09:22:22;13.68;;;3.95;;
29452;SDS011;16424;50.956;5.320;2023-02-19T09:24:48;19.13;;;4.50;;
29452;SDS011;16424;50.956;5.320;2023-02-19T09:27:14;20.30;;;3.65;;
29452;SDS011;16424;50.956;5.320;2023-02-19T09:29:41;14.20;;;3.85;;
29452;SDS011;16424;50.956;5.320;2023-02-19T09:32:07;12.25;;;3.13;;
29452;SDS011;16424;50.956;5.320;2023-02-19T09:34:32;17.17;;;4.40;;
29452;SDS011;16424;50.956;5.320;2023-02-19T09:36:58;17.95;;;3.80;;
29452;SDS011;16424;50.956;5.320;2023-02-19T09:39:24;16.35;;;3.55;;
29452;SDS011;16424;50.956;5.320;2023-02-19T09:41:51;15.18;;;3.55;;
29452;SDS011;16424;50.956;5.320;2023-02-19T09:44:23;15.55;;;3.88;;
29452;SDS011;16424;50.956;5.320;2023-02-19T09:46:53;10.02;;;3.25;;
29452;SDS011;16424;50.956;5.320;2023-02-19T09:49:40;15.70;;;4.20;;
29452;SDS011;16424;50.956;5.320;2023-02-19T09:52:14;21.27;;;4.35;;
29452;SDS011;16424;50.956;5.320;2023-02-19T09:57:39;17.52;;;3.97;;
29452;SDS011;16424;50.956;5.320;2023-02-19T10:02:52;12.38;;;2.95;;
29452;SDS011;16424;50.956;5.320;2023-02-19T10:05:24;14.30;;;3.63;;
29452;SDS011;16424;50.956;5.320;2023-02-19T10:07:51;8.98;;;3.05;;
29452;SDS011;16424;50.956;5.320;2023-02-19T10:10:20;13.70;;;3.63;;
29452;SDS011;16424;50.956;5.320;2023-02-19T10:13:36;13.52;;;3.13;;
29452;SDS011;16424;50.956;5.320;2023-02-19T10:18:15;11.05;;;3.30;;
29452;SDS011;16424;50.956;5.320;2023-02-19T10:20:43;13.77;;;3.50;;
29452;SDS011;16424;50.956;5.320;2023-02-19T10:23:09;15.80;;;4.32;;
29452;SDS011;16424;50.956;5.320;2023-02-19T10:25:39;16.65;;;4.30;;
29452;SDS011;16424;50.956;5.320;2023-02-19T10:28:27;15.00;;;4.03;;
29452;SDS011;16424;50.956;5.320;2023-02-19T10:30:55;18.42;;;4.07;;
29452;SDS011;16424;50.956;5.320;2023-02-19T10:33:23;15.95;;;4.13;;
29452;SDS011;16424;50.956;5.320;2023-02-19T10:38:24;13.45;;;4.13;;
29452;SDS011;16424;50.956;5.320;2023-02-19T10:41:12;22.02;;;4.95;;
29452;SDS011;16424;50.956;5.320;2023-02-19T10:43:42;14.00;;;4.80;;
29452;SDS011;16424;50.956;5.320;2023-02-19T10:46:15;17.15;;;3.72;;
29452;SDS011;16424;50.956;5.320;2023-02-19T10:48:48;11.05;;;3.78;;
29452;SDS011;16424;50.956;5.320;2023-02-19T10:51:16;16.20;;;4.45;;
29452;SDS011;16424;50.956;5.320;2023-02-19T10:53:48;13.38;;;4.25;;
29452;SDS011;16424;50.956;5.320;2023-02-19T10:56:21;9.77;;;3.55;;
29452;SDS011;16424;50.956;5.320;2023-02-19T10:58:49;9.77;;;3.47;;
29452;SDS011;16424;50.956;5.320;2023-02-19T11:03:46;16.48;;;4.25;;
29452;SDS011;16424;50.956;5.320;2023-02-19T11:06:35;10.63;;;3.97;;
29452;SDS011;16424;50.956;5.320;2023-02-19T11:09:01;12.73;;;4.05;;
29452;SDS011;16424;50.956;5.320;2023-02-19T11:13:55;9.38;;;2.72;;
29452;SDS011;16424;50.956;5.320;2023-02-19T11:16:35;10.98;;;3.95;;
29452;SDS011;16424;50.956;5.320;2023-02-19T11:19:45;14.45;;;3.67;;
29452;SDS011;16424;50.956;5.320;2023-02-19T11:30:41;16.20;;;4.70;;
29452;SDS011;16424;50.956;5.320;2023-02-19T11:35:49;10.18;;;4.53;;
29452;SDS011;16424;50.956;5.320;2023-02-19T11:38:24;11.85;;;5.25;;
29452;SDS011;16424;50.956;5.320;2023-02-19T11:46:29;15.10;;;6.32;;
29452;SDS011;16424;50.956;5.320;2023-02-19T11:59:50;18.58;;;6.68;;
29452;SDS011;16424;50.956;5.320;2023-02-19T12:03:42;17.45;;;5.70;;
29452;SDS011;16424;50.956;5.320;2023-02-19T12:08:28;13.77;;;5.47;;
29452;SDS011;16424;50.956;5.320;2023-02-19T12:12:21;21.08;;;5.97;;
29452;SDS011;16424;50.956;5.320;2023-02-19T12:20:17;9.82;;;5.10;;
29452;SDS011;16424;50.956;5.320;2023-02-19T12:22:31;16.88;;;6.07;;
29452;SDS011;16424;50.956;5.320;2023-02-19T12:31:08;11.77;;;5.10;;
29452;SDS011;16424;50.956;5.320;2023-02-19T12:36:52;13.75;;;5.40;;
29452;SDS011;16424;50.956;5.320;2023-02-19T12:39:43;12.63;;;5.88;;
29452;SDS011;16424;50.956;5.320;2023-02-19T12:45:15;11.75;;;6.10;;
29452;SDS011;16424;50.956;5.320;2023-02-19T12:48:11;13.48;;;5.93;;
29452;SDS011;16424;50.956;5.320;2023-02-19T12:50:42;13.50;;;6.10;;
29452;SDS011;16424;50.956;5.320;2023-02-19T12:55:59;14.80;;;6.93;;
29452;SDS011;16424;50.956;5.320;2023-02-19T12:58:49;17.25;;;5.70;;
29452;SDS011;16424;50.956;5.320;2023-02-19T13:01:25;11.63;;;6.15;;
29452;SDS011;16424;50.956;5.320;2023-02-19T13:06:43;12.65;;;5.57;;
29452;SDS011;16424;50.956;5.320;2023-02-19T13:09:19;10.20;;;5.38;;
29452;SDS011;16424;50.956;5.320;2023-02-19T13:11:55;10.93;;;6.07;;
29452;SDS011;16424;50.956;5.320;2023-02-19T13:14:53;10.90;;;6.30;;
29452;SDS011;16424;50.956;5.320;2023-02-19T13:17:25;20.77;;;7.68;;
29452;SDS011;16424;50.956;5.320;2023-02-19T13:20:40;12.82;;;6.25;;
29452;SDS011;16424;50.956;5.320;2023-02-19T13:23:12;11.35;;;7.63;;
29452;SDS011;16424;50.956;5.320;2023-02-19T13:26:36;18.33;;;7.47;;
29452;SDS011;16424;50.956;5.320;2023-02-19T13:37:19;15.32;;;7.15;;
29452;SDS011;16424;50.956;5.320;2023-02-19T13:39:46;14.00;;;6.90;;
29452;SDS011;16424;50.956;5.320;2023-02-19T13:42:27;9.93;;;6.30;;
29452;SDS011;16424;50.956;5.320;2023-02-19T13:44:57;15.52;;;6.18;;
29452;SDS011;16424;50.956;5.320;2023-02-19T13:50:22;14.23;;;6.97;;
29452;SDS011;16424;50.956;5.320;2023-02-19T13:52:50;10.40;;;6.05;;
29452;SDS011;16424;50.956;5.320;2023-02-19T14:01:06;13.70;;;5.68;;
29452;SDS011;16424;50.956;5.320;2023-02-19T14:06:05;10.88;;;5.38;;
29452;SDS011;16424;50.956;5.320;2023-02-19T14:17:00;9.05;;;5.13;;
29452;SDS011;16424;50.956;5.320;2023-02-19T14:25:23;10.13;;;4.63;;
29452;SDS011;16424;50.956;5.320;2023-02-19T14:27:53;6.50;;;4.45;;
29452;SDS011;16424;50.956;5.320;2023-02-19T14:30:23;8.55;;;4.72;;
29452;SDS011;16424;50.956;5.320;2023-02-19T14:32:49;10.98;;;4.45;;
29452;SDS011;16424;50.956;5.320;2023-02-19T14:35:26;11.23;;;5.03;;
29452;SDS011;16424;50.956;5.320;2023-02-19T14:37:59;10.80;;;5.47;;
29452;SDS011;16424;50.956;5.320;2023-02-19T14:40:27;12.23;;;5.20;;
29452;SDS011;16424;50.956;5.320;2023-02-19T14:43:03;7.43;;;4.18;;
29452;SDS011;16424;50.956;5.320;2023-02-19T14:45:30;10.82;;;3.60;;
29452;SDS011;16424;50.956;5.320;2023-02-19T14:48:05;9.52;;;4.35;;
29452;SDS011;16424;50.956;5.320;2023-02-19T14:50:37;8.77;;;3.70;;
29452;SDS011;16424;50.956;5.320;2023-02-19T14:53:03;8.98;;;4.32;;
29452;SDS011;16424;50.956;5.320;2023-02-19T14:55:32;7.85;;;3.90;;
29452;SDS011;16424;50.956;5.320;2023-02-19T14:58:03;5.72;;;4.35;;
29452;SDS011;16424;50.956;5.320;2023-02-19T15:00:35;9.63;;;4.03;;
29452;SDS011;16424;50.956;5.320;2023-02-19T15:03:03;6.78;;;3.60;;
29452;SDS011;16424;50.956;5.320;2023-02-19T15:05:33;9.32;;;4.10;;
29452;SDS011;16424;50.956;5.320;2023-02-19T15:08:02;4.28;;;3.55;;
29452;SDS011;16424;50.956;5.320;2023-02-19T15:10:33;4.93;;;3.10;;
29452;SDS011;16424;50.956;5.320;2023-02-19T15:13:01;12.52;;;3.42;;
29452;SDS011;16424;50.956;5.320;2023-02-19T15:15:30;4.00;;;2.55;;
29452;SDS011;16424;50.956;5.320;2023-02-19T15:17:59;3.97;;;2.55;;
29452;SDS011;16424;50.956;5.320;2023-02-19T15:20:30;4.80;;;2.53;;
29452;SDS011;16424;50.956;5.320;2023-02-19T15:22:58;5.68;;;2.38;;
29452;SDS011;16424;50.956;5.320;2023-02-19T15:25:26;3.95;;;2.13;;
29452;SDS011;16424;50.956;5.320;2023-02-19T15:31:04;5.85;;;2.35;;
29452;SDS011;16424;50.956;5.320;2023-02-19T15:33:31;4.10;;;1.92;;
29452;SDS011;16424;50.956;5.320;2023-02-19T15:36:02;3.65;;;1.80;;
29452;SDS011;16424;50.956;5.320;2023-02-19T15:38:30;3.58;;;1.88;;
29452;SDS011;16424;50.956;5.320;2023-02-19T15:41:00;4.07;;;1.85;;
29452;SDS011;16424;50.956;5.320;2023-02-19T15:43:46;4.15;;;2.30;;
29452;SDS011;16424;50.956;5.320;2023-02-19T15:46:18;6.18;;;2.20;;
29452;SDS011;16424;50.956;5.320;2023-02-19T15:48:51;3.47;;;1.88;;
29452;SDS011;16424;50.956;5.320;2023-02-19T15:54:58;3.75;;;1.80;;
29452;SDS011;16424;50.956;5.320;2023-02-19T15:57:30;5.43;;;2.22;;
29452;SDS011;16424;50.956;5.320;2023-02-19T16:00:10;2.53;;;1.80;;
29452;SDS011;16424;50.956;5.320;2023-02-19T16:02:47;5.13;;;1.80;;
29452;SDS011;16424;50.956;5.320;2023-02-19T16:05:14;2.70;;;1.60;;
29452;SDS011;16424;50.956;5.320;2023-02-19T16:08:03;5.63;;;2.17;;
29452;SDS011;16424;50.956;5.320;2023-02-19T16:10:30;4.60;;;2.10;;
29452;SDS011;16424;50.956;5.320;2023-02-19T16:13:00;2.92;;;2.33;;
29452;SDS011;16424;50.956;5.320;2023-02-19T16:15:27;4.82;;;2.05;;
29452;SDS011;16424;50.956;5.320;2023-02-19T16:17:55;5.93;;;2.00;;
29452;SDS011;16424;50.956;5.320;2023-02-19T16:20:25;5.38;;;2.38;;
29452;SDS011;16424;50.956;5.320;2023-02-19T16:22:59;4.32;;;2.38;;
29452;SDS011;16424;50.956;5.320;2023-02-19T16:25:38;3.53;;;2.17;;
29452;SDS011;16424;50.956;5.320;2023-02-19T16:30:53;2.95;;;1.92;;
29452;SDS011;16424;50.956;5.320;2023-02-19T16:41:33;5.57;;;2.22;;
29452;SDS011;16424;50.956;5.320;2023-02-19T16:47:04;5.07;;;2.13;;
29452;SDS011;16424;50.956;5.320;2023-02-19T16:49:31;7.28;;;2.10;;
29452;SDS011;16424;50.956;5.320;2023-02-19T16:51:57;4.57;;;1.75;;
29452;SDS011;16424;50.956;5.320;2023-02-19T16:54:24;2.92;;;2.08;;
29452;SDS011;16424;50.956;5.320;2023-02-19T16:56:50;3.05;;;2.10;;
29452;SDS011;16424;50.956;5.320;2023-02-19T16:59:15;4.65;;;2.10;;
29452;SDS011;16424;50.956;5.320;2023-02-19T17:01:41;3.67;;;1.70;;
29452;SDS011;16424;50.956;5.320;2023-02-19T17:04:08;4.55;;;2.03;;
29452;SDS011;16424;50.956;5.320;2023-02-19T17:06:35;2.83;;;1.50;;
29452;SDS011;16424;50.956;5.320;2023-02-19T17:09:02;2.15;;;1.60;;
29452;SDS011;16424;50.956;5.320;2023-02-19T17:11:28;2.15;;;1.42;;
29452;SDS011;16424;50.956;5.320;2023-02-19T17:13:54;19.52;;;2.15;;
29452;SDS011;16424;50.956;5.320;2023-02-19T17:16:21;3.85;;;1.58;;
29452;SDS011;16424;50.956;5.320;2023-02-19T17:18:49;2.50;;;1.40;;
29452;SDS011;16424;50.956;5.320;2023-02-19T17:23:53;3.63;;;1.70;;
29452;SDS011;16424;50.956;5.320;2023-02-19T17:26:22;4.90;;;1.90;;
29452;SDS011;16424;50.956;5.320;2023-02-19T17:28:52;2.83;;;1.52;;
29452;SDS011;16424;50.956;5.320;2023-02-19T17:31:20;2.78;;;1.45;;